Aeroporto :
LOGIN :

Iscrizione | Disclaimer

   EN    FR    IT 

 










Sommario :    VFR   VFR Marginale   IFR   IFR Intensivo   IFR Molto Intensivo
Visibilità : 
Base nubi : 
>= 8 km
>= 3000ft
5 / 8 km
1000 / 3000 ft
1500m / 5 km
500 / 1000 ft
800 / 1500m
200 / 500 ft
< 800m
< 200 ft
Simboli :   Temporali  Nebbia  Neve Forte  Precipitazioni Forti  Vento > 20 kt
SIGMETs :   Varie  Temporali  Ghiacco  Turbolenza  Onda orograficha  Ceneri Vulcaniche






- Altitudine del aeroporto : 170 ft
- Codice IATA : KRP


EKKA - Karup

ULTIMO METAR :
  • 190750Z AUTO 30002KT 0700 R09R/1300N R27L/1400U FG VV003 12/12 Q1025

METARs OBSOLETI :
  • 190720Z AUTO 29002KT 0400 R09R/0900N R27L/0900N -RA FG VV003 12/12 Q1025
  • 190650Z AUTO 27002KT 0350 R09R/0900N R27L/0900N -RA FG VV003 12/12 Q1025
  • 190623Z AUTO 25002KT 0350 R09R/0900N R27L/0900N -RA FG VV003 11/11 Q1025
  • 190609Z AUTO 25003KT 0350 R09R/1000N R27L/0900N -RA FG VV002 11/11 Q1025
  • 190550Z AUTO 25002KT 0350 R09R/1100N R27L/0900N -RA FG VV003 11/11 Q1025
  • 190546Z AUTO 25002KT 0350 R09R/1100N R27L/0900N -RA FG VV003 11/11 Q1025
  • 190520Z AUTO 26002KT 0450 R09R/1500D R27L/1100D FG VV003 10/10 Q1025

TAF TAF EKKA
Valido dal 19 a 06 ore il 20 a 06 ore UTC


190510Z 1906/2006 23005KT 0300 FG VV001
TEMPO 1906/1909 2000 BR BKN003
BECMG 1909/1911 31005KT 9999 NSW SCT200
BECMG 1921/1923 VRB03KT 2000 BCFG MIFG
BECMG 1923/2001 0100 FG VV001



MetMap, La meteo Aeronautica in un colpo d'occhio ! - Copyright ORBIFLY Dicembre 2007 - Disclaimer

ORBIFLY MET'MAP TEAM :

Programmazione e sviluppo : Alexandra Zaïnal
Concezione : Baudouin d'Aumeries
Aiuto per la programmazione : Marc-Olivier Méhu
Supporto tecnico e logistico : Manuel Goepfert
Aiuto per la traduzione : Arnaldo La Scala

Contatto : metmap@orbifly.com




FONTI E CREDITI :

   NOAA